sensor_id;sensor_type;location;lat;lon;timestamp;pressure;altitude;pressure_sealevel;temperature;humidity
7594;BME280;3838;43.124;25.686;2023-11-21T00:00:13;99101.38;;;17.97;68.06
7594;BME280;3838;43.124;25.686;2023-11-21T00:02:39;99105.66;;;17.98;68.13
7594;BME280;3838;43.124;25.686;2023-11-21T00:05:10;99108.19;;;17.98;67.72
7594;BME280;3838;43.124;25.686;2023-11-21T00:07:37;99106.50;;;17.98;67.70
7594;BME280;3838;43.124;25.686;2023-11-21T00:10:03;99100.38;;;17.92;67.73
7594;BME280;3838;43.124;25.686;2023-11-21T00:12:30;99109.88;;;17.97;67.68
7594;BME280;3838;43.124;25.686;2023-11-21T00:14:57;99114.97;;;17.97;67.66
7594;BME280;3838;43.124;25.686;2023-11-21T00:17:23;99111.63;;;17.98;67.59
7594;BME280;3838;43.124;25.686;2023-11-21T00:19:48;99114.16;;;17.98;67.51
7594;BME280;3838;43.124;25.686;2023-11-21T00:22:13;99105.66;;;17.98;67.67
7594;BME280;3838;43.124;25.686;2023-11-21T00:24:39;99109.06;;;17.98;67.87
7594;BME280;3838;43.124;25.686;2023-11-21T00:27:05;99100.59;;;17.99;67.59
7594;BME280;3838;43.124;25.686;2023-11-21T00:29:31;99109.97;;;18.00;67.41
7594;BME280;3838;43.124;25.686;2023-11-21T00:31:56;99107.41;;;18.00;67.41
7594;BME280;3838;43.124;25.686;2023-11-21T00:34:22;99110.00;;;18.02;67.26
7594;BME280;3838;43.124;25.686;2023-11-21T00:36:47;99106.59;;;18.01;67.33
7594;BME280;3838;43.124;25.686;2023-11-21T00:39:12;99105.78;;;18.02;67.46
7594;BME280;3838;43.124;25.686;2023-11-21T00:41:38;99108.31;;;18.02;67.00
7594;BME280;3838;43.124;25.686;2023-11-21T00:44:04;99106.66;;;18.03;67.16
7594;BME280;3838;43.124;25.686;2023-11-21T00:46:29;99094.75;;;18.03;66.94
7594;BME280;3838;43.124;25.686;2023-11-21T00:48:55;99094.75;;;18.03;67.07
7594;BME280;3838;43.124;25.686;2023-11-21T00:51:21;99091.41;;;18.04;66.92
7594;BME280;3838;43.124;25.686;2023-11-21T00:53:47;99093.94;;;18.04;66.84
7594;BME280;3838;43.124;25.686;2023-11-21T00:56:13;99092.19;;;18.02;67.13
7594;BME280;3838;43.124;25.686;2023-11-21T00:58:40;99085.44;;;18.04;67.13
7594;BME280;3838;43.124;25.686;2023-11-21T01:01:11;99083.72;;;18.03;66.98
7594;BME280;3838;43.124;25.686;2023-11-21T01:03:37;99085.38;;;18.02;67.01
7594;BME280;3838;43.124;25.686;2023-11-21T01:06:02;99081.97;;;18.02;67.27
7594;BME280;3838;43.124;25.686;2023-11-21T01:11:13;99083.66;;;18.01;67.23
7594;BME280;3838;43.124;25.686;2023-11-21T01:13:39;99085.34;;;18.01;66.67
7594;BME280;3838;43.124;25.686;2023-11-21T01:16:05;99085.34;;;18.01;66.90
7594;BME280;3838;43.124;25.686;2023-11-21T01:18:35;99087.84;;;17.99;66.94
7594;BME280;3838;43.124;25.686;2023-11-21T01:21:01;99080.22;;;17.99;66.89
7594;BME280;3838;43.124;25.686;2023-11-21T01:23:26;99081.94;;;18.00;66.83
7594;BME280;3838;43.124;25.686;2023-11-21T01:25:52;99075.97;;;18.00;66.71
7594;BME280;3838;43.124;25.686;2023-11-21T01:28:18;99078.53;;;18.00;66.62
7594;BME280;3838;43.124;25.686;2023-11-21T01:30:43;99080.25;;;18.01;66.71
7594;BME280;3838;43.124;25.686;2023-11-21T01:33:09;99074.28;;;18.00;66.99
7594;BME280;3838;43.124;25.686;2023-11-21T01:35:35;99074.34;;;18.02;66.46
7594;BME280;3838;43.124;25.686;2023-11-21T01:38:01;99071.75;;;18.00;67.03
7594;BME280;3838;43.124;25.686;2023-11-21T01:40:26;99065.75;;;17.98;67.01
7594;BME280;3838;43.124;25.686;2023-11-21T01:42:54;99067.50;;;18.01;66.45
7594;BME280;3838;43.124;25.686;2023-11-21T01:45:19;99065.81;;;18.01;66.84
7594;BME280;3838;43.124;25.686;2023-11-21T01:47:45;99064.09;;;18.00;66.96
7594;BME280;3838;43.124;25.686;2023-11-21T01:50:15;99052.00;;;17.93;66.39
7594;BME280;3838;43.124;25.686;2023-11-21T01:52:43;99055.59;;;18.00;66.49
7594;BME280;3838;43.124;25.686;2023-11-21T01:55:10;99057.28;;;17.99;66.60
7594;BME280;3838;43.124;25.686;2023-11-21T01:57:36;99056.44;;;18.00;66.59
7594;BME280;3838;43.124;25.686;2023-11-21T02:00:05;99059.00;;;18.00;66.67
7594;BME280;3838;43.124;25.686;2023-11-21T02:02:44;99060.72;;;18.01;66.70
7594;BME280;3838;43.124;25.686;2023-11-21T02:05:14;99053.91;;;18.00;66.37
7594;BME280;3838;43.124;25.686;2023-11-21T02:07:41;99055.53;;;17.98;66.33
7594;BME280;3838;43.124;25.686;2023-11-21T02:10:08;99059.00;;;18.00;66.40
7594;BME280;3838;43.124;25.686;2023-11-21T02:12:34;99062.38;;;17.99;66.43
7594;BME280;3838;43.124;25.686;2023-11-21T02:15:05;99049.53;;;17.96;66.16
7594;BME280;3838;43.124;25.686;2023-11-21T02:17:38;99058.13;;;18.00;66.61
7594;BME280;3838;43.124;25.686;2023-11-21T02:20:03;99062.38;;;17.99;66.28
7594;BME280;3838;43.124;25.686;2023-11-21T02:22:32;99060.69;;;18.00;66.55
7594;BME280;3838;43.124;25.686;2023-11-21T02:25:00;99058.13;;;18.00;66.58
7594;BME280;3838;43.124;25.686;2023-11-21T02:27:26;99061.50;;;17.99;66.34
7594;BME280;3838;43.124;25.686;2023-11-21T02:29:52;99063.22;;;18.00;66.52
7594;BME280;3838;43.124;25.686;2023-11-21T02:32:18;99056.41;;;17.99;66.39
7594;BME280;3838;43.124;25.686;2023-11-21T02:34:44;99058.97;;;17.99;66.08
7594;BME280;3838;43.124;25.686;2023-11-21T02:37:10;99058.91;;;17.97;66.34
7594;BME280;3838;43.124;25.686;2023-11-21T02:39:35;99064.06;;;17.99;66.24
7594;BME280;3838;43.124;25.686;2023-11-21T02:42:01;99053.00;;;17.98;65.94
7594;BME280;3838;43.124;25.686;2023-11-21T02:44:26;99047.06;;;17.99;66.35
7594;BME280;3838;43.124;25.686;2023-11-21T02:46:52;99050.44;;;17.98;66.06
7594;BME280;3838;43.124;25.686;2023-11-21T02:49:17;99049.63;;;17.99;66.15
7594;BME280;3838;43.124;25.686;2023-11-21T02:51:42;99044.50;;;17.98;65.95
7594;BME280;3838;43.124;25.686;2023-11-21T02:54:09;99043.63;;;17.97;65.91
7594;BME280;3838;43.124;25.686;2023-11-21T02:56:34;99047.00;;;17.96;66.14
7594;BME280;3838;43.124;25.686;2023-11-21T02:59:00;99047.84;;;17.97;66.26
7594;BME280;3838;43.124;25.686;2023-11-21T03:01:26;99041.06;;;17.97;65.92
7594;BME280;3838;43.124;25.686;2023-11-21T03:03:52;99047.00;;;17.96;66.31
7594;BME280;3838;43.124;25.686;2023-11-21T03:06:19;99039.34;;;17.96;66.02
7594;BME280;3838;43.124;25.686;2023-11-21T03:08:45;99039.31;;;17.95;66.47
7594;BME280;3838;43.124;25.686;2023-11-21T03:11:10;99040.16;;;17.95;66.26
7594;BME280;3838;43.124;25.686;2023-11-21T03:13:36;99041.91;;;17.96;66.38
7594;BME280;3838;43.124;25.686;2023-11-21T03:16:01;99046.13;;;17.96;66.38
7594;BME280;3838;43.124;25.686;2023-11-21T03:18:27;99043.59;;;17.96;66.40
7594;BME280;3838;43.124;25.686;2023-11-21T03:20:54;99033.34;;;17.94;66.02
7594;BME280;3838;43.124;25.686;2023-11-21T03:23:20;99038.50;;;17.96;66.04
7594;BME280;3838;43.124;25.686;2023-11-21T03:25:45;99039.34;;;17.96;66.24
7594;BME280;3838;43.124;25.686;2023-11-21T03:28:11;99038.44;;;17.94;65.88
7594;BME280;3838;43.124;25.686;2023-11-21T03:30:36;99041.03;;;17.96;66.25
7594;BME280;3838;43.124;25.686;2023-11-21T03:33:01;99048.63;;;17.94;66.28
7594;BME280;3838;43.124;25.686;2023-11-21T03:35:27;99034.22;;;17.95;66.29
7594;BME280;3838;43.124;25.686;2023-11-21T03:37:53;99041.00;;;17.94;65.95
7594;BME280;3838;43.124;25.686;2023-11-21T03:40:18;99041.00;;;17.94;65.83
7594;BME280;3838;43.124;25.686;2023-11-21T03:42:44;99044.38;;;17.93;65.95
7594;BME280;3838;43.124;25.686;2023-11-21T03:45:09;99047.78;;;17.94;66.09
7594;BME280;3838;43.124;25.686;2023-11-21T03:47:37;99044.38;;;17.93;66.29
7594;BME280;3838;43.124;25.686;2023-11-21T03:50:03;99044.31;;;17.92;65.99
7594;BME280;3838;43.124;25.686;2023-11-21T03:52:29;99046.06;;;17.93;65.82
7594;BME280;3838;43.124;25.686;2023-11-21T03:54:55;99044.31;;;17.92;65.80
7594;BME280;3838;43.124;25.686;2023-11-21T03:57:21;99048.59;;;17.93;66.21
7594;BME280;3838;43.124;25.686;2023-11-21T03:59:46;99049.41;;;17.92;65.75
7594;BME280;3838;43.124;25.686;2023-11-21T04:02:12;99049.41;;;17.92;65.82
7594;BME280;3838;43.124;25.686;2023-11-21T04:04:37;99054.47;;;17.90;66.07
7594;BME280;3838;43.124;25.686;2023-11-21T04:07:03;99046.00;;;17.91;66.08
7594;BME280;3838;43.124;25.686;2023-11-21T04:09:28;99044.31;;;17.92;65.85
7594;BME280;3838;43.124;25.686;2023-11-21T04:11:53;99046.06;;;17.93;65.61
7594;BME280;3838;43.124;25.686;2023-11-21T04:14:20;99043.47;;;17.91;65.75
7594;BME280;3838;43.124;25.686;2023-11-21T04:16:45;99047.69;;;17.91;65.87
7594;BME280;3838;43.124;25.686;2023-11-21T04:19:10;99049.38;;;17.90;66.09
7594;BME280;3838;43.124;25.686;2023-11-21T04:21:37;99045.16;;;17.91;65.59
7594;BME280;3838;43.124;25.686;2023-11-21T04:24:03;99051.09;;;17.91;65.63
7594;BME280;3838;43.124;25.686;2023-11-21T04:26:29;99045.97;;;17.90;66.07
7594;BME280;3838;43.124;25.686;2023-11-21T04:28:54;99049.34;;;17.89;65.69
7594;BME280;3838;43.124;25.686;2023-11-21T04:31:19;99051.06;;;17.90;65.88
7594;BME280;3838;43.124;25.686;2023-11-21T04:33:45;99051.09;;;17.91;65.87
7594;BME280;3838;43.124;25.686;2023-11-21T04:36:11;99050.28;;;17.92;65.57
7594;BME280;3838;43.124;25.686;2023-11-21T04:38:36;99053.66;;;17.91;65.46
7594;BME280;3838;43.124;25.686;2023-11-21T04:41:01;99052.78;;;17.91;65.79
7594;BME280;3838;43.124;25.686;2023-11-21T04:43:27;99053.66;;;17.91;65.68
7594;BME280;3838;43.124;25.686;2023-11-21T04:45:53;99047.66;;;17.89;65.59
7594;BME280;3838;43.124;25.686;2023-11-21T04:48:18;99050.19;;;17.89;65.93
7594;BME280;3838;43.124;25.686;2023-11-21T04:50:43;99050.19;;;17.89;65.33
7594;BME280;3838;43.124;25.686;2023-11-21T04:53:09;99054.44;;;17.89;65.83
7594;BME280;3838;43.124;25.686;2023-11-21T04:55:34;99055.28;;;17.89;65.86
7594;BME280;3838;43.124;25.686;2023-11-21T04:58:00;99056.19;;;17.91;65.43
7594;BME280;3838;43.124;25.686;2023-11-21T05:00:25;99054.44;;;17.89;65.31
7594;BME280;3838;43.124;25.686;2023-11-21T05:02:50;99051.84;;;17.87;65.89
7594;BME280;3838;43.124;25.686;2023-11-21T05:05:17;99044.19;;;17.87;66.11
7594;BME280;3838;43.124;25.686;2023-11-21T05:07:42;99057.94;;;17.92;66.47
7594;BME280;3838;43.124;25.686;2023-11-21T05:10:08;99058.66;;;17.88;66.11
7594;BME280;3838;43.124;25.686;2023-11-21T05:12:37;99063.75;;;17.88;65.62
7594;BME280;3838;43.124;25.686;2023-11-21T05:15:06;99070.63;;;17.91;65.40
7594;BME280;3838;43.124;25.686;2023-11-21T05:17:38;99075.75;;;17.92;65.72
7594;BME280;3838;43.124;25.686;2023-11-21T05:20:07;99081.00;;;17.97;65.61
7594;BME280;3838;43.124;25.686;2023-11-21T05:22:35;99081.03;;;17.98;65.54
7594;BME280;3838;43.124;25.686;2023-11-21T05:25:01;99078.53;;;18.00;66.13
7594;BME280;3838;43.124;25.686;2023-11-21T05:27:28;99081.94;;;18.00;65.24
7594;BME280;3838;43.124;25.686;2023-11-21T05:29:53;99085.34;;;18.01;64.85
7594;BME280;3838;43.124;25.686;2023-11-21T05:32:18;99080.00;;;17.92;65.15
7594;BME280;3838;43.124;25.686;2023-11-21T05:34:45;99084.31;;;17.94;64.29
7594;BME280;3838;43.124;25.686;2023-11-21T05:37:10;99088.63;;;17.97;64.72
7594;BME280;3838;43.124;25.686;2023-11-21T05:39:35;99092.88;;;17.96;65.20
7594;BME280;3838;43.124;25.686;2023-11-21T05:42:01;99091.19;;;17.97;65.12
7594;BME280;3838;43.124;25.686;2023-11-21T05:44:26;99088.63;;;17.97;65.40
7594;BME280;3838;43.124;25.686;2023-11-21T05:46:52;99095.41;;;17.96;65.60
7594;BME280;3838;43.124;25.686;2023-11-21T05:49:18;99092.78;;;17.93;66.18
7594;BME280;3838;43.124;25.686;2023-11-21T05:51:47;99095.34;;;17.93;66.36
7594;BME280;3838;43.124;25.686;2023-11-21T05:54:12;99085.09;;;17.92;66.20
7594;BME280;3838;43.124;25.686;2023-11-21T05:56:38;99087.56;;;17.89;66.07
7594;BME280;3838;43.124;25.686;2023-11-21T05:59:03;99086.78;;;17.91;66.31
7594;BME280;3838;43.124;25.686;2023-11-21T06:01:28;99097.84;;;17.92;66.69
7594;BME280;3838;43.124;25.686;2023-11-21T06:03:54;99093.47;;;17.88;67.27
7594;BME280;3838;43.124;25.686;2023-11-21T06:06:21;99092.59;;;17.87;66.92
7594;BME280;3838;43.124;25.686;2023-11-21T06:08:48;99101.16;;;17.89;66.77
7594;BME280;3838;43.124;25.686;2023-11-21T06:11:14;99093.44;;;17.86;66.80
7594;BME280;3838;43.124;25.686;2023-11-21T06:13:39;99094.28;;;17.87;67.45
7594;BME280;3838;43.124;25.686;2023-11-21T06:16:05;99101.06;;;17.86;67.48
7594;BME280;3838;43.124;25.686;2023-11-21T06:18:31;99104.44;;;17.85;67.41
7594;BME280;3838;43.124;25.686;2023-11-21T06:20:56;99106.16;;;17.86;67.30
7594;BME280;3838;43.124;25.686;2023-11-21T06:23:21;99116.38;;;17.86;67.16
7594;BME280;3838;43.124;25.686;2023-11-21T06:25:47;99112.91;;;17.84;67.34
7594;BME280;3838;43.124;25.686;2023-11-21T06:28:12;99103.59;;;17.84;68.00
7594;BME280;3838;43.124;25.686;2023-11-21T06:30:38;99109.50;;;17.83;67.63
7594;BME280;3838;43.124;25.686;2023-11-21T06:33:03;99109.41;;;17.80;67.00
7594;BME280;3838;43.124;25.686;2023-11-21T06:35:29;99110.19;;;17.78;67.69
7594;BME280;3838;43.124;25.686;2023-11-21T06:37:57;99114.56;;;17.82;67.99
7594;BME280;3838;43.124;25.686;2023-11-21T06:40:23;99103.31;;;17.75;68.41
7594;BME280;3838;43.124;25.686;2023-11-21T06:42:49;99114.56;;;17.82;68.20
7594;BME280;3838;43.124;25.686;2023-11-21T06:45:16;99108.59;;;17.81;68.00
7594;BME280;3838;43.124;25.686;2023-11-21T06:47:41;99101.75;;;17.80;67.89
7594;BME280;3838;43.124;25.686;2023-11-21T06:50:07;99098.34;;;17.80;68.35
7594;BME280;3838;43.124;25.686;2023-11-21T06:52:33;99106.00;;;17.80;68.07
7594;BME280;3838;43.124;25.686;2023-11-21T06:54:58;99094.94;;;17.79;68.70
7594;BME280;3838;43.124;25.686;2023-11-21T06:57:24;99095.81;;;17.80;67.82
7594;BME280;3838;43.124;25.686;2023-11-21T06:59:49;99094.94;;;17.79;67.90
7594;BME280;3838;43.124;25.686;2023-11-21T07:02:16;99091.53;;;17.79;68.11
7594;BME280;3838;43.124;25.686;2023-11-21T07:04:46;99090.63;;;17.77;68.30
7594;BME280;3838;43.124;25.686;2023-11-21T07:07:12;99080.44;;;17.77;68.09
7594;BME280;3838;43.124;25.686;2023-11-21T07:09:38;99096.59;;;17.77;68.26
7594;BME280;3838;43.124;25.686;2023-11-21T07:12:03;99097.44;;;17.78;67.97
7594;BME280;3838;43.124;25.686;2023-11-21T07:14:31;99094.00;;;17.76;68.07
7594;BME280;3838;43.124;25.686;2023-11-21T07:16:57;99088.84;;;17.74;68.02
7594;BME280;3838;43.124;25.686;2023-11-21T07:19:22;99087.16;;;17.75;68.31
7594;BME280;3838;43.124;25.686;2023-11-21T07:21:48;99084.56;;;17.73;67.65
7594;BME280;3838;43.124;25.686;2023-11-21T07:24:16;99084.53;;;17.72;67.84
7594;BME280;3838;43.124;25.686;2023-11-21T07:26:41;99086.16;;;17.70;68.22
7594;BME280;3838;43.124;25.686;2023-11-21T07:29:07;99088.72;;;17.70;67.69
7594;BME280;3838;43.124;25.686;2023-11-21T07:31:32;99097.31;;;17.73;67.67
7594;BME280;3838;43.124;25.686;2023-11-21T07:34:00;99095.72;;;17.77;67.54
7594;BME280;3838;43.124;25.686;2023-11-21T07:36:26;99094.91;;;17.78;67.89
7594;BME280;3838;43.124;25.686;2023-11-21T07:38:52;99094.03;;;17.77;67.71
7594;BME280;3838;43.124;25.686;2023-11-21T07:41:18;99096.63;;;17.79;67.77
7594;BME280;3838;43.124;25.686;2023-11-21T07:43:45;99094.94;;;17.79;67.68
7594;BME280;3838;43.124;25.686;2023-11-21T07:46:11;99094.97;;;17.81;67.73
7594;BME280;3838;43.124;25.686;2023-11-21T07:48:38;99082.25;;;17.81;68.22
7594;BME280;3838;43.124;25.686;2023-11-21T07:51:04;99078.88;;;17.82;68.11
7594;BME280;3838;43.124;25.686;2023-11-21T07:53:30;99082.34;;;17.84;68.48
7594;BME280;3838;43.124;25.686;2023-11-21T07:56:08;99078.84;;;17.80;68.27
7594;BME280;3838;43.124;25.686;2023-11-21T07:58:35;99072.06;;;17.81;68.13
7594;BME280;3838;43.124;25.686;2023-11-21T08:01:01;99077.19;;;17.82;68.14
7594;BME280;3838;43.124;25.686;2023-11-21T08:03:27;99065.22;;;17.80;67.94
7594;BME280;3838;43.124;25.686;2023-11-21T08:05:54;99067.00;;;17.82;68.24
7594;BME280;3838;43.124;25.686;2023-11-21T08:08:20;99084.78;;;17.81;67.95
7594;BME280;3838;43.124;25.686;2023-11-21T08:10:45;99082.28;;;17.82;67.84
7594;BME280;3838;43.124;25.686;2023-11-21T08:13:25;99078.88;;;17.82;68.30
7594;BME280;3838;43.124;25.686;2023-11-21T08:15:53;99076.38;;;17.83;67.85
7594;BME280;3838;43.124;25.686;2023-11-21T08:18:19;99073.78;;;17.82;68.20
7594;BME280;3838;43.124;25.686;2023-11-21T08:20:45;99079.75;;;17.82;68.33
7594;BME280;3838;43.124;25.686;2023-11-21T08:23:14;99075.50;;;17.83;67.77
7594;BME280;3838;43.124;25.686;2023-11-21T08:25:40;99074.59;;;17.81;67.96
7594;BME280;3838;43.124;25.686;2023-11-21T08:28:07;99065.28;;;17.81;67.63
7594;BME280;3838;43.124;25.686;2023-11-21T08:30:32;99061.88;;;17.81;67.91
7594;BME280;3838;43.124;25.686;2023-11-21T08:32:58;99074.69;;;17.84;67.79
7594;BME280;3838;43.124;25.686;2023-11-21T08:35:24;99070.47;;;17.84;67.62
7594;BME280;3838;43.124;25.686;2023-11-21T08:37:53;99066.19;;;17.83;67.79
7594;BME280;3838;43.124;25.686;2023-11-21T08:40:19;99067.94;;;17.86;67.49
7594;BME280;3838;43.124;25.686;2023-11-21T08:42:46;99060.25;;;17.84;67.49
7594;BME280;3838;43.124;25.686;2023-11-21T08:45:11;99053.47;;;17.85;67.74
7594;BME280;3838;43.124;25.686;2023-11-21T08:47:38;99049.22;;;17.84;67.92
7594;BME280;3838;43.124;25.686;2023-11-21T08:50:05;99046.66;;;17.84;67.39
7594;BME280;3838;43.124;25.686;2023-11-21T08:52:33;99038.19;;;17.85;67.76
7594;BME280;3838;43.124;25.686;2023-11-21T08:54:59;99036.50;;;17.86;67.40
7594;BME280;3838;43.124;25.686;2023-11-21T08:57:28;99033.09;;;17.85;67.83
7594;BME280;3838;43.124;25.686;2023-11-21T08:59:53;99025.41;;;17.83;67.91
7594;BME280;3838;43.124;25.686;2023-11-21T09:02:25;99023.72;;;17.84;67.75
7594;BME280;3838;43.124;25.686;2023-11-21T09:04:51;99022.88;;;17.83;67.44
7594;BME280;3838;43.124;25.686;2023-11-21T09:07:20;99018.66;;;17.86;67.33
7594;BME280;3838;43.124;25.686;2023-11-21T09:09:48;99012.72;;;17.85;67.47
7594;BME280;3838;43.124;25.686;2023-11-21T09:12:14;99006.75;;;17.84;67.54
7594;BME280;3838;43.124;25.686;2023-11-21T09:14:40;99009.31;;;17.84;67.51
7594;BME280;3838;43.124;25.686;2023-11-21T09:17:06;98997.44;;;17.85;67.63
7594;BME280;3838;43.124;25.686;2023-11-21T09:19:37;98997.44;;;17.85;67.77
7594;BME280;3838;43.124;25.686;2023-11-21T09:22:03;98988.06;;;17.84;67.70
7594;BME280;3838;43.124;25.686;2023-11-21T09:24:28;98994.84;;;17.83;67.52
7594;BME280;3838;43.124;25.686;2023-11-21T09:26:54;98993.16;;;17.84;67.66
7594;BME280;3838;43.124;25.686;2023-11-21T09:29:19;98988.06;;;17.84;67.30
7594;BME280;3838;43.124;25.686;2023-11-21T09:31:45;98983.81;;;17.84;67.48
7594;BME280;3838;43.124;25.686;2023-11-21T09:34:10;98982.13;;;17.85;67.13
7594;BME280;3838;43.124;25.686;2023-11-21T09:36:36;98977.91;;;17.86;67.42
7594;BME280;3838;43.124;25.686;2023-11-21T09:39:04;98977.03;;;17.85;67.01
7594;BME280;3838;43.124;25.686;2023-11-21T09:42:12;98971.09;;;17.84;67.15
7594;BME280;3838;43.124;25.686;2023-11-21T09:44:45;98959.22;;;17.85;67.54
7594;BME280;3838;43.124;25.686;2023-11-21T09:47:14;98956.66;;;17.85;67.48
7594;BME280;3838;43.124;25.686;2023-11-21T09:49:44;98951.56;;;17.85;67.48
7594;BME280;3838;43.124;25.686;2023-11-21T09:52:17;98944.75;;;17.84;67.43
7594;BME280;3838;43.124;25.686;2023-11-21T09:54:43;98944.75;;;17.84;67.17
7594;BME280;3838;43.124;25.686;2023-11-21T09:57:10;98940.50;;;17.84;67.65
7594;BME280;3838;43.124;25.686;2023-11-21T09:59:36;98934.56;;;17.84;67.49
7594;BME280;3838;43.124;25.686;2023-11-21T10:02:03;98932.00;;;17.84;67.34
7594;BME280;3838;43.124;25.686;2023-11-21T10:04:29;98932.03;;;17.86;66.98
7594;BME280;3838;43.124;25.686;2023-11-21T10:06:54;98923.50;;;17.83;67.17
7594;BME280;3838;43.124;25.686;2023-11-21T10:09:21;98916.72;;;17.84;67.17
7594;BME280;3838;43.124;25.686;2023-11-21T10:11:47;98910.78;;;17.85;67.61
7594;BME280;3838;43.124;25.686;2023-11-21T10:14:14;98905.69;;;17.85;67.29
7594;BME280;3838;43.124;25.686;2023-11-21T10:16:41;98905.69;;;17.85;67.36
7594;BME280;3838;43.124;25.686;2023-11-21T10:19:10;98904.72;;;17.80;67.24
7594;BME280;3838;43.124;25.686;2023-11-21T10:21:36;98903.16;;;17.85;67.58
7594;BME280;3838;43.124;25.686;2023-11-21T10:24:03;98899.75;;;17.84;67.64
7594;BME280;3838;43.124;25.686;2023-11-21T10:26:29;98894.66;;;17.84;66.90
7594;BME280;3838;43.124;25.686;2023-11-21T10:29:00;98896.34;;;17.84;67.45
7594;BME280;3838;43.124;25.686;2023-11-21T10:31:29;98890.41;;;17.85;67.50
7594;BME280;3838;43.124;25.686;2023-11-21T10:34:13;98874.19;;;17.81;67.64
7594;BME280;3838;43.124;25.686;2023-11-21T10:36:38;98886.19;;;17.86;67.41
7594;BME280;3838;43.124;25.686;2023-11-21T10:39:03;98876.00;;;17.86;67.47
7594;BME280;3838;43.124;25.686;2023-11-21T10:41:29;98874.25;;;17.84;67.56
7594;BME280;3838;43.124;25.686;2023-11-21T10:43:55;98873.41;;;17.84;67.24
7594;BME280;3838;43.124;25.686;2023-11-21T10:46:21;98866.63;;;17.84;67.52
7594;BME280;3838;43.124;25.686;2023-11-21T10:48:52;98861.53;;;17.84;67.16
7594;BME280;3838;43.124;25.686;2023-11-21T10:51:20;98858.16;;;17.86;67.17
7594;BME280;3838;43.124;25.686;2023-11-21T10:53:46;98857.34;;;17.87;67.57
7594;BME280;3838;43.124;25.686;2023-11-21T10:56:14;98849.66;;;17.85;67.01
7594;BME280;3838;43.124;25.686;2023-11-21T10:58:45;98849.66;;;17.85;67.61
7594;BME280;3838;43.124;25.686;2023-11-21T11:01:11;98851.38;;;17.86;67.26
7594;BME280;3838;43.124;25.686;2023-11-21T11:03:39;98841.19;;;17.86;67.46
7594;BME280;3838;43.124;25.686;2023-11-21T11:06:07;98836.09;;;17.86;67.49
7594;BME280;3838;43.124;25.686;2023-11-21T11:08:39;98836.09;;;17.86;66.98
7594;BME280;3838;43.124;25.686;2023-11-21T11:11:06;98832.75;;;17.89;66.49
7594;BME280;3838;43.124;25.686;2023-11-21T11:13:31;98823.41;;;17.89;67.09
7594;BME280;3838;43.124;25.686;2023-11-21T11:16:01;98819.22;;;17.91;67.01
7594;BME280;3838;43.124;25.686;2023-11-21T11:18:28;98818.41;;;17.92;66.88
7594;BME280;3838;43.124;25.686;2023-11-21T11:21:23;98804.78;;;17.92;67.55
7594;BME280;3838;43.124;25.686;2023-11-21T11:29:18;98787.69;;;17.86;67.57
7594;BME280;3838;43.124;25.686;2023-11-21T11:32:10;98792.09;;;17.93;66.92
7594;BME280;3838;43.124;25.686;2023-11-21T11:34:46;98786.13;;;17.93;66.87
7594;BME280;3838;43.124;25.686;2023-11-21T11:37:12;98788.72;;;17.94;67.47
7594;BME280;3838;43.124;25.686;2023-11-21T11:39:42;98790.38;;;17.92;67.16
7594;BME280;3838;43.124;25.686;2023-11-21T11:42:14;98777.56;;;17.89;67.09
7594;BME280;3838;43.124;25.686;2023-11-21T11:47:27;98773.34;;;17.91;67.46
7594;BME280;3838;43.124;25.686;2023-11-21T11:50:08;98761.47;;;17.92;67.63
7594;BME280;3838;43.124;25.686;2023-11-21T11:52:54;98762.31;;;17.91;67.71
7594;BME280;3838;43.124;25.686;2023-11-21T11:55:23;98767.41;;;17.91;67.91
7594;BME280;3838;43.124;25.686;2023-11-21T11:57:53;98752.97;;;17.91;68.05
7594;BME280;3838;43.124;25.686;2023-11-21T12:00:42;98757.31;;;17.95;67.60
7594;BME280;3838;43.124;25.686;2023-11-21T12:03:08;98750.56;;;17.97;66.90
7594;BME280;3838;43.124;25.686;2023-11-21T12:05:36;98748.88;;;17.98;67.85
7594;BME280;3838;43.124;25.686;2023-11-21T12:08:05;98742.06;;;17.97;67.64
7594;BME280;3838;43.124;25.686;2023-11-21T12:10:32;98744.63;;;17.98;68.08
7594;BME280;3838;43.124;25.686;2023-11-21T12:13:00;98731.88;;;17.97;67.11
7594;BME280;3838;43.124;25.686;2023-11-21T12:15:27;98729.31;;;17.97;67.24
7594;BME280;3838;43.124;25.686;2023-11-21T12:17:56;98731.88;;;17.97;67.19
7594;BME280;3838;43.124;25.686;2023-11-21T12:20:23;98722.53;;;17.97;67.05
7594;BME280;3838;43.124;25.686;2023-11-21T12:22:54;98715.72;;;17.96;67.23
7594;BME280;3838;43.124;25.686;2023-11-21T12:25:23;98723.34;;;17.96;67.13
7594;BME280;3838;43.124;25.686;2023-11-21T12:27:52;98716.53;;;17.95;67.25
7594;BME280;3838;43.124;25.686;2023-11-21T12:30:19;98713.16;;;17.96;67.12
7594;BME280;3838;43.124;25.686;2023-11-21T12:32:49;98712.31;;;17.96;66.95
7594;BME280;3838;43.124;25.686;2023-11-21T12:35:15;98718.25;;;17.96;66.66
7594;BME280;3838;43.124;25.686;2023-11-21T12:37:41;98715.72;;;17.96;67.02
7594;BME280;3838;43.124;25.686;2023-11-21T12:40:10;98713.16;;;17.96;66.80
7594;BME280;3838;43.124;25.686;2023-11-21T12:42:44;98710.63;;;17.96;66.62
7594;BME280;3838;43.124;25.686;2023-11-21T12:45:18;98697.84;;;17.95;67.22
7594;BME280;3838;43.124;25.686;2023-11-21T12:50:11;98700.38;;;17.95;66.77
7594;BME280;3838;43.124;25.686;2023-11-21T12:52:44;98704.66;;;17.96;67.46
7594;BME280;3838;43.124;25.686;2023-11-21T12:55:20;98700.41;;;17.96;67.12
7594;BME280;3838;43.124;25.686;2023-11-21T12:57:53;98697.00;;;17.96;66.73
7594;BME280;3838;43.124;25.686;2023-11-21T13:00:32;98697.88;;;17.96;67.27
7594;BME280;3838;43.124;25.686;2023-11-21T13:02:59;98697.88;;;17.96;66.56
7594;BME280;3838;43.124;25.686;2023-11-21T13:05:36;98699.56;;;17.96;66.91
7594;BME280;3838;43.124;25.686;2023-11-21T13:08:04;98700.41;;;17.96;66.71
7594;BME280;3838;43.124;25.686;2023-11-21T13:10:34;98705.53;;;17.96;66.98
7594;BME280;3838;43.124;25.686;2023-11-21T13:13:02;98701.25;;;17.95;66.70
7594;BME280;3838;43.124;25.686;2023-11-21T13:15:31;98711.47;;;17.97;66.94
7594;BME280;3838;43.124;25.686;2023-11-21T13:17:58;98710.63;;;17.96;66.48
7594;BME280;3838;43.124;25.686;2023-11-21T13:20:25;98715.66;;;17.93;66.98
7594;BME280;3838;43.124;25.686;2023-11-21T13:22:51;98708.00;;;17.93;67.00